Main page
METAR-TAF:

METAR-TAF

Airports :

Meiringen Air Base

Meiringen, Switzerland

latitude: 46-44-25N, longitude: 8-06-36E, elevation: 577 m

Current weather observation

The report was made 25 minutes ago, at 14:20 UTC
Wind 6 kt from variable directions
Temperature 25°C
Humidity 50%
Pressure 1015 hPa
Visibility 10 km or more
Few clouds at a height of 17000 ft

METAR: LSMM 171420Z AUTO VRB06KT 9999NDV FEW170 25/14 Q1015 RMK

Time: 16:45 (14:45 UTC)


TAF: missing

Weather observations and forecasts of more than 4000 airports (METAR and TAF reports).

The available stations are represented by yellow and red dots on the map.

Hover mouse over dot to see the name of the station.

Then click to see weather observations and forecasts.

To change the map : click on the green buttons with a black cross to zoom in, on the green button with a dash to zoom out, or on the green arrows for adjacent maps.


METAR-TAF: